createdAt,value
2022-10-30T00:03:59.763Z,11.20
2022-10-30T00:06:27.927Z,11.20
2022-10-30T00:08:57.530Z,11.20
2022-10-30T00:11:25.702Z,11.20
2022-10-30T00:13:54.076Z,11.20
2022-10-30T00:27:12.160Z,11.30
2022-10-30T00:29:40.439Z,11.30
2022-10-30T00:32:09.228Z,11.40
2022-10-30T00:34:38.190Z,11.40
2022-10-30T00:37:09.104Z,11.30
2022-10-30T00:39:41.033Z,11.30
2022-10-30T00:42:13.219Z,11.40
2022-10-30T00:47:36.084Z,11.40
2022-10-30T00:50:08.677Z,11.40
2022-10-30T00:52:41.869Z,11.40
2022-10-30T00:55:16.727Z,11.40
2022-10-30T01:06:11.624Z,11.50
2022-10-30T01:14:15.638Z,11.50
2022-10-30T01:17:08.127Z,11.50
2022-10-30T01:19:45.280Z,11.50
2022-10-30T01:22:42.064Z,11.50
2022-10-30T01:28:29.265Z,11.40
2022-10-30T01:31:09.985Z,11.50
2022-10-30T01:36:41.219Z,11.40
2022-10-30T01:39:15.116Z,11.40
2022-10-30T01:41:43.520Z,11.40
2022-10-30T01:44:17.999Z,11.40
2022-10-30T01:56:06.718Z,11.40
2022-10-30T01:58:44.517Z,11.40
2022-10-30T02:01:20.888Z,11.40
2022-10-30T02:03:49.906Z,11.50
2022-10-30T02:06:49.409Z,11.40
2022-10-30T02:09:18.085Z,11.40
2022-10-30T02:11:51.717Z,11.50
2022-10-30T02:14:24.524Z,11.40
2022-10-30T02:16:55.817Z,11.50
2022-10-30T02:19:24.111Z,11.40
2022-10-30T02:21:54.142Z,11.40
2022-10-30T02:24:22.672Z,11.50
2022-10-30T02:29:36.677Z,11.50
2022-10-30T02:32:05.327Z,11.50
2022-10-30T02:34:35.443Z,11.50
2022-10-30T02:42:36.964Z,11.50
2022-10-30T02:47:51.447Z,11.40
2022-10-30T02:50:20.292Z,11.40
2022-10-30T02:55:35.551Z,11.50
2022-10-30T02:58:04.451Z,11.40
2022-10-30T03:03:22.998Z,11.40
2022-10-30T03:05:52.497Z,11.40
2022-10-30T03:08:22.104Z,11.40
2022-10-30T03:13:37.064Z,11.30
2022-10-30T03:18:53.918Z,11.30
2022-10-30T03:21:24.090Z,11.20
2022-10-30T03:23:54.708Z,11.30
2022-10-30T03:26:23.524Z,11.20
2022-10-30T03:28:55.382Z,11.20
2022-10-30T03:31:23.957Z,11.20
2022-10-30T03:36:54.506Z,11.20
2022-10-30T03:42:09.826Z,11.20
2022-10-30T03:44:38.003Z,11.20
2022-10-30T03:49:52.247Z,11.20
2022-10-30T03:52:22.435Z,11.20
2022-10-30T03:57:40.759Z,11.20
2022-10-30T04:00:17.710Z,11.20
2022-10-30T04:02:58.458Z,11.20
2022-10-30T04:05:29.626Z,11.20
2022-10-30T04:07:59.355Z,11.20
2022-10-30T04:10:30.417Z,11.10
2022-10-30T04:15:55.960Z,11.10
2022-10-30T04:21:13.310Z,11.10
2022-10-30T04:26:32.361Z,11.10
2022-10-30T04:29:00.550Z,11.10
2022-10-30T04:31:28.983Z,11.10
2022-10-30T04:33:57.282Z,11.10
2022-10-30T04:36:30.572Z,11.10
2022-10-30T04:38:59.043Z,11.10
2022-10-30T04:41:33.699Z,11.20
2022-10-30T04:44:09.015Z,11.10
2022-10-30T04:49:23.570Z,11.20
2022-10-30T04:51:51.808Z,11.10
2022-10-30T04:54:21.111Z,11.10
2022-10-30T04:56:49.343Z,11.10
2022-10-30T04:59:19.069Z,11.20
2022-10-30T05:01:47.582Z,11.10
2022-10-30T05:07:02.214Z,11.20
2022-10-30T05:17:53.759Z,11.20
2022-10-30T05:20:22.712Z,11.20
2022-10-30T05:22:56.423Z,11.20
2022-10-30T05:25:25.111Z,11.10
2022-10-30T05:27:59.765Z,11.10
2022-10-30T05:33:35.086Z,11.10
2022-10-30T05:36:03.568Z,11.20
2022-10-30T05:38:31.826Z,11.20
2022-10-30T05:41:00.207Z,11.20
2022-10-30T05:43:28.474Z,11.20
2022-10-30T05:45:58.541Z,11.20
2022-10-30T05:51:12.775Z,11.20
2022-10-30T05:53:45.910Z,11.30
2022-10-30T05:56:14.164Z,11.20
2022-10-30T06:01:29.946Z,11.30
2022-10-30T06:04:01.052Z,11.30
2022-10-30T06:06:29.243Z,11.30
2022-10-30T06:08:57.568Z,11.30
2022-10-30T06:20:37.891Z,11.50
2022-10-30T06:23:27.667Z,11.50
2022-10-30T06:26:01.697Z,11.60
2022-10-30T06:28:39.166Z,11.60
2022-10-30T06:31:10.052Z,11.60
2022-10-30T06:33:40.922Z,11.60
2022-10-30T06:36:09.811Z,11.60
2022-10-30T06:38:38.480Z,11.60
2022-10-30T06:41:07.304Z,11.60
2022-10-30T06:43:41.721Z,11.70
2022-10-30T06:46:27.469Z,11.70
2022-10-30T06:49:00.977Z,11.70
2022-10-30T06:51:30.206Z,11.80
2022-10-30T06:57:09.328Z,11.80
2022-10-30T06:59:51.776Z,11.80
2022-10-30T07:02:29.949Z,11.90
2022-10-30T07:05:05.723Z,11.90
2022-10-30T07:07:34.880Z,12.00
2022-10-30T07:13:09.805Z,12.10
2022-10-30T07:18:42.305Z,12.30
2022-10-30T07:21:12.173Z,12.30
2022-10-30T07:23:40.717Z,12.30
2022-10-30T07:26:29.170Z,12.40
2022-10-30T07:29:01.449Z,12.40
2022-10-30T07:31:57.496Z,12.40
2022-10-30T07:34:44.973Z,12.50
2022-10-30T07:37:36.397Z,12.60
2022-10-30T07:43:07.494Z,12.70
2022-10-30T07:45:41.636Z,12.80
2022-10-30T07:48:45.176Z,12.80
2022-10-30T07:51:42.566Z,12.80
2022-10-30T07:54:12.741Z,12.80
2022-10-30T07:56:42.423Z,12.90
2022-10-30T07:59:28.995Z,12.90
2022-10-30T08:05:25.540Z,13.00
2022-10-30T08:08:06.333Z,13.10
2022-10-30T08:10:36.729Z,13.10
2022-10-30T08:13:05.251Z,13.10
2022-10-30T08:21:05.677Z,13.30
2022-10-30T08:23:33.863Z,13.40
2022-10-30T08:26:10.084Z,13.40
2022-10-30T08:31:26.396Z,13.50
2022-10-30T08:34:03.413Z,13.50
2022-10-30T08:36:50.857Z,13.60
2022-10-30T08:39:20.881Z,13.60
2022-10-30T08:42:01.006Z,13.60
2022-10-30T08:47:45.155Z,13.70
2022-10-30T08:50:14.623Z,13.80
2022-10-30T08:55:28.685Z,13.90
2022-10-30T08:57:59.741Z,14.00
2022-10-30T09:00:29.037Z,14.00
2022-10-30T09:03:20.113Z,14.00
2022-10-30T09:09:20.281Z,14.00
2022-10-30T09:11:52.902Z,14.00
2022-10-30T09:14:22.623Z,14.10
2022-10-30T09:16:57.463Z,14.10
2022-10-30T09:19:25.709Z,14.00
2022-10-30T09:21:53.940Z,14.10
2022-10-30T09:24:23.062Z,14.00
2022-10-30T09:26:51.281Z,14.00
2022-10-30T09:29:31.219Z,13.90
2022-10-30T09:32:11.489Z,13.90
2022-10-30T09:37:40.500Z,14.00
2022-10-30T09:40:23.000Z,13.90
2022-10-30T09:42:53.232Z,14.00
2022-10-30T09:49:12.511Z,14.10
2022-10-30T09:55:32.687Z,14.20
2022-10-30T09:58:12.759Z,14.30
2022-10-30T10:00:50.484Z,14.30
2022-10-30T10:03:41.549Z,14.40
2022-10-30T10:09:26.018Z,14.60
2022-10-30T10:12:00.539Z,14.70
2022-10-30T10:14:31.568Z,14.80
2022-10-30T10:17:04.038Z,14.80
2022-10-30T10:19:36.949Z,14.80
2022-10-30T10:22:13.033Z,14.80
2022-10-30T10:33:58.105Z,15.00
2022-10-30T10:42:31.772Z,15.20
2022-10-30T10:45:18.836Z,15.10
2022-10-30T10:48:25.943Z,15.10
2022-10-30T10:53:52.301Z,15.00
2022-10-30T10:56:28.782Z,15.00
2022-10-30T10:58:59.753Z,14.90
2022-10-30T11:01:36.264Z,14.90
2022-10-30T11:04:12.157Z,14.80
2022-10-30T11:06:45.135Z,14.70
2022-10-30T11:09:19.761Z,14.60
2022-10-30T11:17:25.410Z,14.50
2022-10-30T11:19:58.425Z,14.40
2022-10-30T11:22:34.430Z,14.40
2022-10-30T11:25:20.402Z,14.40
2022-10-30T11:27:50.770Z,14.50
2022-10-30T11:30:21.850Z,14.50
2022-10-30T11:35:43.769Z,14.50
2022-10-30T11:38:21.653Z,14.60
2022-10-30T11:40:53.780Z,14.70
2022-10-30T11:43:25.575Z,14.70
2022-10-30T11:45:54.571Z,14.70
2022-10-30T11:51:14.544Z,14.70
2022-10-30T11:53:50.171Z,14.70
2022-10-30T11:56:21.252Z,14.80
2022-10-30T11:58:52.374Z,14.80
2022-10-30T12:01:24.179Z,14.90
2022-10-30T12:03:53.055Z,14.90
2022-10-30T12:06:28.611Z,14.90
2022-10-30T12:11:50.145Z,15.00
2022-10-30T12:14:21.188Z,15.00
2022-10-30T12:16:51.437Z,15.00
2022-10-30T12:22:09.842Z,15.00
2022-10-30T12:24:41.001Z,15.00
2022-10-30T12:27:19.746Z,15.10
2022-10-30T12:30:10.443Z,15.10
2022-10-30T12:32:46.865Z,15.10
2022-10-30T12:35:30.859Z,15.20
2022-10-30T12:38:01.962Z,15.20
2022-10-30T12:40:37.233Z,15.20
2022-10-30T12:43:13.614Z,15.20
2022-10-30T12:45:44.500Z,15.10
2022-10-30T12:51:17.208Z,14.90
2022-10-30T12:53:54.300Z,14.80
2022-10-30T12:56:28.359Z,14.70
2022-10-30T12:59:04.142Z,14.70
2022-10-30T13:01:38.300Z,14.70
2022-10-30T13:07:12.144Z,14.60
2022-10-30T13:09:43.679Z,14.60
2022-10-30T13:12:19.258Z,14.60
2022-10-30T13:14:53.430Z,14.50
2022-10-30T13:17:21.624Z,14.50
2022-10-30T13:19:51.117Z,14.50
2022-10-30T13:22:25.038Z,14.50
2022-10-30T13:25:03.858Z,14.50
2022-10-30T13:27:41.944Z,14.50
2022-10-30T13:30:15.578Z,14.50
2022-10-30T13:33:00.586Z,14.50
2022-10-30T13:38:38.229Z,14.40
2022-10-30T13:41:17.264Z,14.40
2022-10-30T13:43:58.023Z,14.30
2022-10-30T13:49:38.780Z,14.20
2022-10-30T13:52:13.992Z,14.20
2022-10-30T13:57:40.287Z,14.10
2022-10-30T14:00:16.951Z,14.10
2022-10-30T14:05:56.371Z,14.00
2022-10-30T14:08:34.519Z,13.90
2022-10-30T14:13:56.323Z,13.80
2022-10-30T14:16:42.189Z,13.70
2022-10-30T14:19:11.759Z,13.70
2022-10-30T14:21:42.749Z,13.60
2022-10-30T14:24:23.304Z,13.60
2022-10-30T14:26:54.721Z,13.50
2022-10-30T14:29:51.744Z,13.60
2022-10-30T14:32:43.523Z,13.50
2022-10-30T14:38:36.586Z,13.40
2022-10-30T14:41:24.080Z,13.30
2022-10-30T14:44:22.466Z,13.30
2022-10-30T14:47:07.107Z,13.30
2022-10-30T14:52:43.746Z,13.30
2022-10-30T14:55:29.275Z,13.20
2022-10-30T14:58:18.199Z,13.10
2022-10-30T15:00:46.630Z,13.10
2022-10-30T15:03:28.276Z,13.10
2022-10-30T15:06:00.799Z,13.00
2022-10-30T15:08:43.020Z,13.00
2022-10-30T15:11:28.007Z,12.90
2022-10-30T15:14:00.095Z,12.90
2022-10-30T15:16:30.743Z,12.90
2022-10-30T15:19:02.935Z,12.80
2022-10-30T15:21:36.590Z,12.70
2022-10-30T15:24:05.056Z,12.70
2022-10-30T15:26:37.295Z,12.70
2022-10-30T15:29:06.758Z,12.60
2022-10-30T15:31:34.938Z,12.60
2022-10-30T15:34:03.144Z,12.60
2022-10-30T15:36:41.843Z,12.50
2022-10-30T15:39:13.234Z,12.50
2022-10-30T15:41:44.927Z,12.50
2022-10-30T15:47:03.219Z,12.40
2022-10-30T15:52:23.468Z,12.30
2022-10-30T15:58:13.129Z,12.30
2022-10-30T16:03:22.207Z,12.20
2022-10-30T16:05:50.423Z,12.20
2022-10-30T16:08:22.993Z,12.20
2022-10-30T16:10:54.360Z,12.20
2022-10-30T16:13:26.391Z,12.10
2022-10-30T16:15:54.780Z,12.10
2022-10-30T16:21:14.972Z,12.00
2022-10-30T16:23:50.990Z,12.00
2022-10-30T16:26:32.763Z,12.00
2022-10-30T16:31:51.251Z,11.90
2022-10-30T16:34:24.860Z,11.90
2022-10-30T16:36:53.549Z,11.90
2022-10-30T16:42:19.519Z,11.90
2022-10-30T16:44:47.766Z,11.80
2022-10-30T16:47:25.797Z,11.80
2022-10-30T16:49:57.232Z,11.70
2022-10-30T16:52:30.817Z,11.70
2022-10-30T16:55:03.306Z,11.70
2022-10-30T16:57:33.964Z,11.70
2022-10-30T17:00:03.051Z,11.60
2022-10-30T17:02:33.788Z,11.60
2022-10-30T17:05:13.181Z,11.60
2022-10-30T17:07:54.713Z,11.60
2022-10-30T17:10:35.460Z,11.50
2022-10-30T17:13:30.978Z,11.50
2022-10-30T17:15:59.540Z,11.50
2022-10-30T17:18:32.652Z,11.40
2022-10-30T17:21:09.102Z,11.40
2022-10-30T17:23:37.695Z,11.40
2022-10-30T17:26:11.801Z,11.40
2022-10-30T17:28:40.303Z,11.40
2022-10-30T17:31:32.202Z,11.30
2022-10-30T17:34:14.326Z,11.30
2022-10-30T17:36:42.935Z,11.30
2022-10-30T17:39:11.073Z,11.30
2022-10-30T17:44:27.535Z,11.20
2022-10-30T17:46:55.760Z,11.20
2022-10-30T17:49:27.124Z,11.10
2022-10-30T17:51:55.682Z,11.10
2022-10-30T17:54:24.159Z,11.00
2022-10-30T17:59:39.533Z,10.80
2022-10-30T18:02:15.009Z,10.90
2022-10-30T18:04:43.471Z,10.90
2022-10-30T18:07:12.101Z,10.80
2022-10-30T18:18:13.537Z,10.70
2022-10-30T18:20:41.747Z,10.70
2022-10-30T18:23:38.789Z,10.60
2022-10-30T18:26:07.952Z,10.60
2022-10-30T18:28:37.466Z,10.60
2022-10-30T18:31:05.752Z,10.60
2022-10-30T18:33:33.955Z,10.60
2022-10-30T18:44:23.604Z,10.40
2022-10-30T18:46:51.814Z,10.30
2022-10-30T18:49:24.448Z,10.30
2022-10-30T18:51:52.737Z,10.30
2022-10-30T18:54:20.982Z,10.30
2022-10-30T18:56:49.243Z,10.30
2022-10-30T18:59:17.460Z,10.30
2022-10-30T19:01:47.186Z,10.30
2022-10-30T19:07:02.246Z,10.30
2022-10-30T19:09:30.809Z,10.30
2022-10-30T19:11:59.306Z,10.30
2022-10-30T19:14:27.657Z,10.30
2022-10-30T19:16:57.228Z,10.20
2022-10-30T19:19:25.540Z,10.30
2022-10-30T19:21:53.758Z,10.20
2022-10-30T19:24:21.895Z,10.20
2022-10-30T19:26:50.155Z,10.20
2022-10-30T19:32:05.674Z,10.20
2022-10-30T19:37:20.443Z,10.10
2022-10-30T19:42:34.681Z,10.00
2022-10-30T19:47:55.066Z,9.90
2022-10-30T19:50:27.126Z,9.90
2022-10-30T19:55:44.685Z,9.80
2022-10-30T20:01:00.505Z,9.80
2022-10-30T20:03:30.196Z,9.80
2022-10-30T20:05:58.594Z,9.70
2022-10-30T20:08:27.054Z,9.70
2022-10-30T20:10:56.790Z,9.70
2022-10-30T20:13:26.594Z,9.70
2022-10-30T20:15:56.536Z,9.70
2022-10-30T20:18:27.422Z,9.70
2022-10-30T20:20:58.932Z,9.60
2022-10-30T20:23:27.568Z,9.60
2022-10-30T20:26:01.185Z,9.60
2022-10-30T20:28:32.800Z,9.60
2022-10-30T20:31:01.402Z,9.50
2022-10-30T20:33:29.747Z,9.50
2022-10-30T20:35:59.397Z,9.40
2022-10-30T20:38:30.593Z,9.40
2022-10-30T20:41:00.153Z,9.30
2022-10-30T20:46:17.592Z,9.30
2022-10-30T20:48:45.768Z,9.30
2022-10-30T20:51:15.762Z,9.20
2022-10-30T20:53:45.145Z,9.10
2022-10-30T20:58:59.212Z,9.10
2022-10-30T21:01:27.505Z,9.10
2022-10-30T21:04:00.651Z,9.10
2022-10-30T21:06:31.479Z,9.00
2022-10-30T21:08:59.766Z,9.00
2022-10-30T21:11:27.979Z,9.00
2022-10-30T21:13:56.935Z,9.00
2022-10-30T21:16:25.652Z,8.90
2022-10-30T21:24:46.573Z,8.90
2022-10-30T21:27:14.910Z,8.90
2022-10-30T21:32:32.109Z,8.90
2022-10-30T21:35:00.325Z,8.80
2022-10-30T21:37:29.941Z,8.80
2022-10-30T21:39:58.109Z,8.80
2022-10-30T21:53:12.682Z,8.70
2022-10-30T21:58:26.948Z,8.60
2022-10-30T22:03:40.946Z,8.60
2022-10-30T22:06:10.786Z,8.50
2022-10-30T22:11:28.476Z,8.40
2022-10-30T22:14:00.106Z,8.40
2022-10-30T22:16:30.110Z,8.40
2022-10-30T22:18:58.985Z,8.40
2022-10-30T22:21:27.290Z,8.30
2022-10-30T22:23:57.383Z,8.30
2022-10-30T22:26:25.615Z,8.20
2022-10-30T22:28:55.057Z,8.30
2022-10-30T22:31:24.935Z,8.30
2022-10-30T22:33:53.837Z,8.30
2022-10-30T22:36:24.091Z,8.30
2022-10-30T22:38:58.021Z,8.30
2022-10-30T22:41:28.680Z,8.30
2022-10-30T22:44:00.184Z,8.20
2022-10-30T22:46:30.715Z,8.20
2022-10-30T22:48:59.498Z,8.20
2022-10-30T22:51:27.986Z,8.20
2022-10-30T22:53:59.155Z,8.10
2022-10-30T22:56:29.647Z,8.10
2022-10-30T22:58:58.392Z,8.10
2022-10-30T23:01:28.264Z,8.10
2022-10-30T23:03:58.099Z,8.10
2022-10-30T23:06:27.188Z,8.10
2022-10-30T23:08:58.463Z,8.00
2022-10-30T23:11:27.715Z,8.00
2022-10-30T23:13:58.636Z,8.00
2022-10-30T23:16:27.502Z,7.90
2022-10-30T23:18:56.505Z,7.90
2022-10-30T23:21:26.914Z,7.90
2022-10-30T23:23:57.325Z,7.90
2022-10-30T23:26:28.158Z,7.90
2022-10-30T23:28:57.212Z,7.90
2022-10-30T23:31:27.387Z,7.80
2022-10-30T23:33:57.522Z,7.80
2022-10-30T23:36:25.993Z,7.80
2022-10-30T23:38:54.829Z,7.80
2022-10-30T23:41:25.830Z,7.80
2022-10-30T23:43:55.177Z,7.70
2022-10-30T23:46:23.880Z,7.80
2022-10-30T23:48:52.676Z,7.70
2022-10-30T23:51:21.447Z,7.70
2022-10-30T23:53:50.041Z,7.70
2022-10-30T23:56:18.667Z,7.70
2022-10-30T23:58:50.498Z,7.70
